Time;durP1;ratioP1;P1;durP2;ratioP2;P2;SDS_P1;SDS_P2;PMS_P1;PMS_P2;Temp;Humidity;BMP_temperature;BMP_pressure;BME280_temperature;BME280_humidity;BME280_pressure;Samples;Min_cycle;Max_cycle;Signal;HPM_P1;HPM_P2
2021/04/26 00:01:09;;;;;;;30.60;17.07;;;;;;;2.55;63.77;100773.09;1621338;87;25924;-78
2021/04/26 00:03:35;;;;;;;31.30;19.98;;;;;;;2.54;63.91;100770.16;1618705;87;25815;-78
2021/04/26 00:06:01;;;;;;;35.13;18.47;;;;;;;2.49;63.99;100767.89;1619563;87;25788;-78
2021/04/26 00:08:26;;;;;;;31.17;18.47;;;;;;;2.47;64.12;100774.08;1620545;87;25407;-78
2021/04/26 00:10:53;;;;;;;33.17;18.97;;;;;;;2.39;64.35;100772.81;1619338;86;25364;-78
2021/04/26 00:13:19;;;;;;;32.78;18.37;;;;;;;2.34;64.46;100771.48;1621093;87;25880;-78
2021/04/26 00:15:45;;;;;;;35.70;20.10;;;;;;;2.32;64.66;100769.02;1619366;87;25414;-74
2021/04/26 00:18:12;;;;;;;28.70;17.02;;;;;;;2.31;64.64;100771.68;1620745;87;25781;-74
2021/04/26 00:20:40;;;;;;;36.93;18.42;;;;;;;2.33;64.79;100763.39;1618668;87;26693;-74
2021/04/26 00:23:06;;;;;;;28.98;15.98;;;;;;;2.32;64.74;100760.42;1619661;87;25690;-74
2021/04/26 00:25:32;;;;;;;32.80;18.42;;;;;;;2.32;64.83;100765.59;1620482;87;25770;-74
2021/04/26 00:27:59;;;;;;;30.70;18.62;;;;;;;2.32;64.85;100772.03;1619989;87;25681;-78
2021/04/26 00:30:27;;;;;;;33.42;18.62;;;;;;;2.32;64.93;100769.02;1620374;87;25753;-78
2021/04/26 00:32:54;;;;;;;32.85;19.55;;;;;;;2.39;65.09;100767.66;1621389;87;25895;-78
2021/04/26 00:35:21;;;;;;;35.13;19.23;;;;;;;2.43;65.09;100758.80;1619643;87;25375;-78
2021/04/26 00:37:48;;;;;;;34.58;18.32;;;;;;;2.47;65.05;100754.26;1619696;87;25675;-78
2021/04/26 00:40:16;;;;;;;31.97;17.75;;;;;;;2.50;65.00;100754.05;1620821;87;25808;-74
2021/04/26 00:42:42;;;;;;;36.90;19.07;;;;;;;2.47;64.79;100758.13;1621530;88;25376;-74
2021/04/26 00:45:12;;;;;;;30.97;19.15;;;;;;;2.39;64.90;100758.63;1619933;87;25947;-74
2021/04/26 00:47:40;;;;;;;33.45;17.52;;;;;;;2.33;64.93;100756.47;1619043;87;26374;-78
2021/04/26 00:50:14;;;;;;;33.53;19.75;;;;;;;2.31;65.10;100756.20;1619588;87;25843;-78
2021/04/26 00:52:41;;;;;;;32.00;17.95;;;;;;;2.34;65.19;100754.71;1620296;87;25871;-78
2021/04/26 00:55:09;;;;;;;30.48;18.20;;;;;;;2.36;65.22;100748.99;1617502;87;26581;-78
2021/04/26 00:57:35;;;;;;;27.77;16.93;;;;;;;2.32;65.18;100745.80;1619940;87;25772;-77
2021/04/26 01:00:01;;;;;;;29.32;16.93;;;;;;;2.28;65.26;100749.50;1621016;87;25718;-74
2021/04/26 01:02:28;;;;;;;31.73;16.62;;;;;;;2.28;65.39;100748.20;1601805;87;25871;-74
2021/04/26 01:04:55;;;;;;;31.60;16.40;;;;;;;2.30;65.46;100755.39;1620439;87;25863;-74
2021/04/26 01:07:22;;;;;;;29.50;17.10;;;;;;;2.32;65.40;100762.56;1619265;87;25699;-74
2021/04/26 01:09:48;;;;;;;34.30;17.95;;;;;;;2.30;65.36;100754.56;1619286;87;25969;-78
2021/04/26 01:12:53;;;;;;;35.60;18.73;;;;;;;2.32;65.50;100756.12;1618597;87;25817;-74
2021/04/26 01:16:02;;;;;;;35.90;19.30;;;;;;;2.38;65.56;100758.28;1621192;87;25349;-74
2021/04/26 01:18:48;;;;;;;34.10;18.27;;;;;;;2.36;65.46;100751.10;1620525;87;25611;-73
2021/04/26 01:21:41;;;;;;;40.28;21.27;;;;;;;2.39;65.46;100752.66;1620523;87;25722;-76
2021/04/26 01:24:25;;;;;;;37.38;21.02;;;;;;;2.29;65.38;100755.04;1620588;87;25818;-77
2021/04/26 01:26:59;;;;;;;39.27;21.15;;;;;;;2.21;65.44;100751.67;1622025;86;25935;-77
2021/04/26 01:29:37;;;;;;;37.33;20.50;;;;;;;2.13;65.55;100761.66;1619471;86;26018;-77
2021/04/26 01:32:47;;;;;;;36.80;20.35;;;;;;;2.06;65.69;100746.69;1621942;86;25798;-77
2021/04/26 01:35:18;;;;;;;34.13;19.65;;;;;;;1.99;65.76;100752.70;1603237;88;25766;-76
2021/04/26 01:37:48;;;;;;;35.80;18.05;;;;;;;1.90;66.01;100746.86;1621683;86;25767;-77
2021/04/26 01:40:15;;;;;;;37.38;19.50;;;;;;;1.89;66.14;100751.66;1620629;87;25763;-77
2021/04/26 01:42:46;;;;;;;36.08;18.65;;;;;;;1.81;66.25;100757.31;1589069;88;26588;-77
2021/04/26 01:45:16;;;;;;;33.13;18.37;;;;;;;1.73;66.42;100749.24;1617884;87;25886;-77
2021/04/26 01:47:44;;;;;;;34.35;17.00;;;;;;;1.75;66.78;100752.55;1621324;86;25733;-77
2021/04/26 01:50:13;;;;;;;34.63;18.57;;;;;;;1.73;66.98;100750.06;1602582;88;26509;-77
2021/04/26 01:52:39;;;;;;;30.25;17.15;;;;;;;1.69;66.95;100749.06;1604248;88;25799;-77
2021/04/26 01:55:08;;;;;;;34.33;18.02;;;;;;;1.73;67.16;100742.34;1620538;88;25760;-77
2021/04/26 01:57:40;;;;;;;29.37;16.62;;;;;;;1.78;67.34;100732.56;1621580;86;35365;-77
2021/04/26 02:00:15;;;;;;;30.70;16.50;;;;;;;1.84;67.38;100733.09;1618442;87;25788;-78
2021/04/26 02:02:45;;;;;;;28.30;15.63;;;;;;;1.90;67.48;100737.84;1623575;86;26108;-78
2021/04/26 02:05:14;;;;;;;28.95;16.42;;;;;;;1.91;67.49;100742.91;1602752;87;25805;-78
2021/04/26 02:07:46;;;;;;;28.57;16.82;;;;;;;1.97;67.44;100740.39;1619299;87;25840;-78
2021/04/26 02:10:27;;;;;;;25.43;14.35;;;;;;;1.99;67.39;100740.66;1619975;87;25741;-78
2021/04/26 02:12:53;;;;;;;27.73;14.58;;;;;;;1.95;67.50;100738.37;1624081;87;25772;-77
2021/04/26 02:15:22;;;;;;;24.07;14.78;;;;;;;1.88;67.49;100729.38;1599148;88;25893;-78
2021/04/26 02:17:49;;;;;;;26.27;14.85;;;;;;;1.88;67.62;100728.09;1601289;87;25943;-74
2021/04/26 02:20:17;;;;;;;26.55;14.83;;;;;;;1.87;67.65;100731.13;1596474;88;26140;-74
2021/04/26 02:22:50;;;;;;;25.57;13.80;;;;;;;1.88;67.75;100734.09;1621282;87;25375;-74
2021/04/26 02:25:17;;;;;;;24.60;14.30;;;;;;;1.88;67.83;100728.94;1621177;87;25749;-74
2021/04/26 02:27:44;;;;;;;23.52;14.03;;;;;;;1.86;67.90;100730.78;1621365;88;25834;-74
2021/04/26 02:30:12;;;;;;;26.33;12.45;;;;;;;1.88;67.97;100732.80;1620981;87;25849;-74
2021/04/26 02:33:01;;;;;;;22.85;12.40;;;;;;;1.85;68.16;100729.11;1621191;87;25682;-74
2021/04/26 02:35:52;;;;;;;22.90;12.10;;;;;;;1.84;68.15;100726.18;1597124;87;25911;-77
2021/04/26 02:38:25;;;;;;;21.57;12.53;;;;;;;1.82;68.38;100730.59;1593812;87;25808;-77
2021/04/26 02:41:10;;;;;;;21.80;11.20;;;;;;;1.81;68.47;100722.52;1618495;87;26173;-78
2021/04/26 02:43:44;;;;;;;19.30;10.32;;;;;;;1.81;68.36;100727.67;1620102;87;25577;-78
2021/04/26 02:46:12;;;;;;;18.80;10.45;;;;;;;1.81;68.36;100731.54;1618601;87;25816;-77
2021/04/26 02:48:44;;;;;;;19.55;10.93;;;;;;;1.72;68.39;100721.37;1619866;87;25964;-78
2021/04/26 02:51:11;;;;;;;17.15;9.60;;;;;;;1.77;68.67;100737.80;1593100;88;25396;-78
2021/04/26 02:53:39;;;;;;;21.12;12.10;;;;;;;1.73;68.81;100728.16;1618402;87;25892;-78
2021/04/26 02:56:09;;;;;;;18.32;10.48;;;;;;;1.72;68.50;100726.52;1603015;87;25811;-77
2021/04/26 02:58:38;;;;;;;20.05;10.70;;;;;;;1.76;68.50;100722.80;1621025;87;25849;-77
2021/04/26 03:01:07;;;;;;;19.90;10.95;;;;;;;1.80;68.43;100723.45;1620429;87;25408;-77
2021/04/26 03:03:39;;;;;;;17.75;10.70;;;;;;;1.83;68.44;100720.67;1621666;86;25986;-77
2021/04/26 03:06:09;;;;;;;20.45;10.53;;;;;;;1.84;68.31;100716.34;1620993;87;25830;-77
2021/04/26 03:08:39;;;;;;;20.57;10.70;;;;;;;1.81;68.59;100722.52;1623780;87;25867;-77
2021/04/26 03:11:13;;;;;;;17.73;9.00;;;;;;;1.80;68.54;100713.15;1620550;87;25790;-77
2021/04/26 03:13:40;;;;;;;16.62;9.05;;;;;;;1.81;68.38;100720.41;1621293;87;25935;-78
2021/04/26 03:16:07;;;;;;;18.52;10.15;;;;;;;1.78;68.34;100719.67;1621187;87;26516;-77
2021/04/26 03:18:35;;;;;;;21.25;10.18;;;;;;;1.79;68.29;100719.20;1602732;88;25998;-78
2021/04/26 03:21:05;;;;;;;18.07;10.72;;;;;;;1.80;68.39;100710.57;1620209;87;25773;-78
2021/04/26 03:23:32;;;;;;;17.35;9.25;;;;;;;1.84;68.33;100715.05;1621600;87;25749;-78
2021/04/26 03:26:00;;;;;;;16.95;9.58;;;;;;;1.88;68.30;100717.77;1619070;87;25955;-78
2021/04/26 03:28:29;;;;;;;18.20;9.90;;;;;;;1.87;68.18;100709.22;1620076;87;25690;-77
2021/04/26 03:31:01;;;;;;;22.77;11.40;;;;;;;1.89;68.28;100712.53;1620638;88;25812;-77
2021/04/26 03:33:33;;;;;;;16.90;9.75;;;;;;;1.91;68.32;100711.98;1619176;87;25757;-77
2021/04/26 03:36:00;;;;;;;21.65;10.13;;;;;;;1.94;68.25;100722.09;1620925;87;25861;-77
2021/04/26 03:38:28;;;;;;;15.75;8.15;;;;;;;1.97;68.23;100719.77;1621063;87;25728;-78
2021/04/26 03:40:57;;;;;;;16.85;9.65;;;;;;;2.00;68.12;100720.39;1618969;87;26014;-78
2021/04/26 03:43:26;;;;;;;18.32;10.15;;;;;;;2.03;68.15;100722.41;1620039;87;25675;-77
2021/04/26 03:45:58;;;;;;;17.55;9.18;;;;;;;2.01;68.10;100723.78;1622022;86;25850;-78
2021/04/26 03:48:42;;;;;;;21.07;10.88;;;;;;;2.02;68.05;100727.18;1597806;87;25999;-78
2021/04/26 03:51:27;;;;;;;16.85;9.65;;;;;;;1.97;68.09;100727.50;1621181;87;25801;-78
2021/04/26 03:54:12;;;;;;;18.20;9.28;;;;;;;1.96;68.08;100734.42;1619109;87;25773;-73
2021/04/26 03:56:40;;;;;;;15.60;8.75;;;;;;;1.96;68.15;100732.28;1619628;87;25783;-74
2021/04/26 03:59:06;;;;;;;13.75;7.87;;;;;;;1.97;68.19;100739.10;1619441;87;25881;-74
2021/04/26 04:01:34;;;;;;;17.55;8.40;;;;;;;1.95;68.44;100734.50;1620460;87;25634;-74
2021/04/26 04:04:01;;;;;;;20.35;9.95;;;;;;;1.91;68.33;100733.89;1620280;87;26201;-74
2021/04/26 04:06:28;;;;;;;18.82;8.68;;;;;;;1.88;68.18;100732.80;1619574;87;25976;-74
2021/04/26 04:09:14;;;;;;;20.08;9.10;;;;;;;1.87;68.27;100731.13;1620447;87;25722;-78
2021/04/26 04:11:44;;;;;;;15.53;8.48;;;;;;;1.87;68.27;100732.89;1619447;87;25701;-77
2021/04/26 04:14:20;;;;;;;15.98;8.38;;;;;;;1.85;68.32;100731.69;1618827;87;25408;-77
2021/04/26 04:16:48;;;;;;;17.48;9.50;;;;;;;1.85;68.48;100734.73;1620483;87;25682;-78
2021/04/26 04:19:14;;;;;;;16.73;9.25;;;;;;;1.82;68.42;100740.91;1620122;87;26428;-78
2021/04/26 04:21:39;;;;;;;15.00;7.97;;;;;;;1.83;68.96;100735.28;1620840;87;25862;-78
2021/04/26 04:24:08;;;;;;;15.55;8.30;;;;;;;1.82;68.68;100734.94;1601324;87;25791;-78
2021/04/26 04:26:35;;;;;;;15.13;7.45;;;;;;;1.83;68.59;100736.58;1603189;87;37351;-78
2021/04/26 04:29:06;;;;;;;;;;;;;;;1.86;68.96;100729.49;1622709;87;26165;-77
2021/04/26 04:31:40;;;;;;;19.48;8.08;;;;;;;1.89;69.00;100730.58;1620702;87;25848;-78
2021/04/26 04:34:07;;;;;;;14.13;6.75;;;;;;;1.91;68.69;100731.31;1617235;87;26131;-78
2021/04/26 04:36:52;;;;;;;13.32;6.95;;;;;;;1.92;68.62;100739.86;1620130;87;25423;-77
2021/04/26 04:39:37;;;;;;;11.83;6.83;;;;;;;1.93;68.67;100742.79;1619502;87;25766;-78
2021/04/26 04:42:21;;;;;;;11.75;7.17;;;;;;;1.98;68.79;100748.01;1619726;87;25738;-78
2021/04/26 04:44:48;;;;;;;11.08;7.20;;;;;;;2.01;68.62;100746.98;1619978;87;25899;-77
2021/04/26 04:47:13;;;;;;;11.73;6.97;;;;;;;2.00;68.82;100746.16;1619938;87;26160;-77
2021/04/26 04:49:40;;;;;;;13.43;6.75;;;;;;;1.98;68.56;100754.92;1620619;87;25896;-78
2021/04/26 04:52:06;;;;;;;12.20;5.92;;;;;;;1.99;68.81;100756.13;1621737;87;25811;-77
2021/04/26 04:54:33;;;;;;;10.72;6.15;;;;;;;2.03;68.61;100759.79;1620951;87;25770;-78
2021/04/26 04:57:00;;;;;;;11.18;6.47;;;;;;;2.05;68.49;100757.94;1621000;87;25761;-78
2021/04/26 04:59:28;;;;;;;12.07;6.05;;;;;;;2.10;68.60;100759.73;1620185;87;28578;-77
2021/04/26 05:01:56;;;;;;;12.13;6.95;;;;;;;2.11;68.46;100747.22;1619374;87;25938;-74
2021/04/26 05:04:26;;;;;;;;;;;;;;;2.17;68.46;100754.55;1570595;87;25766;-74
2021/04/26 05:07:10;;;;;;;11.30;5.80;;;;;;;2.23;68.36;100756.71;1619017;87;25784;-74
2021/04/26 05:09:55;;;;;;;10.98;6.00;;;;;;;2.27;68.45;100759.47;1620135;87;25339;-73
2021/04/26 05:12:39;;;;;;;12.13;6.50;;;;;;;2.27;68.18;100754.30;1621506;88;25853;-73
2021/04/26 05:15:12;;;;;;;13.62;6.15;;;;;;;2.29;67.98;100756.77;1617076;87;25807;-77
2021/04/26 05:17:38;;;;;;;11.80;5.85;;;;;;;2.38;68.00;100760.05;1619435;87;26296;-78
2021/04/26 05:20:06;;;;;;;12.23;6.33;;;;;;;2.44;67.72;100753.17;1620222;87;25927;-77
2021/04/26 05:22:34;;;;;;;9.20;5.00;;;;;;;2.48;67.51;100747.34;1617828;87;25809;-78
2021/04/26 05:25:09;;;;;;;10.48;5.60;;;;;;;2.50;67.39;100750.64;1619415;87;25813;-78
2021/04/26 05:27:37;;;;;;;11.97;4.95;;;;;;;2.51;67.46;100747.12;1581839;86;25928;-77
2021/04/26 05:30:06;;;;;;;8.98;4.72;;;;;;;2.56;67.17;100747.64;1581221;86;26671;-77
2021/04/26 05:32:32;;;;;;;13.50;5.75;;;;;;;2.62;67.05;100754.99;1619899;86;25869;-78
2021/04/26 05:35:00;;;;;;;10.78;5.22;;;;;;;2.65;66.88;100751.73;1621116;86;25848;-78
2021/04/26 05:37:26;;;;;;;7.93;3.90;;;;;;;2.71;66.76;100750.48;1617259;88;26523;-78
2021/04/26 05:39:52;;;;;;;10.08;3.95;;;;;;;2.80;66.28;100753.72;1618894;86;26450;-77
2021/04/26 05:42:18;;;;;;;7.27;4.00;;;;;;;2.89;66.02;100752.25;1619559;86;35463;-78
2021/04/26 05:44:45;;;;;;;9.30;4.40;;;;;;;2.91;65.30;100754.74;1618419;86;25411;-77
2021/04/26 05:47:25;;;;;;;6.97;3.87;;;;;;;2.88;65.33;100757.06;1617569;86;26751;-78
2021/04/26 05:49:50;;;;;;;9.80;3.70;;;;;;;2.95;65.74;100756.20;1621305;86;25848;-78
2021/04/26 05:52:16;;;;;;;6.90;4.00;;;;;;;3.05;65.12;100764.93;1620953;86;25860;-78
2021/04/26 05:54:42;;;;;;;7.73;4.07;;;;;;;3.09;64.80;100756.88;1619064;88;36132;-78
2021/04/26 05:57:10;;;;;;;6.73;3.87;;;;;;;3.09;64.95;100763.80;1619168;86;25629;-78
2021/04/26 05:59:36;;;;;;;5.40;3.37;;;;;;;3.15;64.72;100768.53;1619111;86;25542;-78
2021/04/26 06:02:02;;;;;;;6.67;3.17;;;;;;;3.18;64.66;100768.31;1621720;86;25763;-78
2021/04/26 06:04:28;;;;;;;10.30;4.30;;;;;;;3.19;64.58;100777.73;1599786;86;25846;-78
2021/04/26 06:06:54;;;;;;;5.92;3.85;;;;;;;3.26;64.85;100771.19;1619594;86;26687;-78
2021/04/26 06:09:20;;;;;;;8.37;3.67;;;;;;;3.37;64.79;100772.20;1619783;86;25459;-79
2021/04/26 06:11:45;;;;;;;5.23;3.53;;;;;;;3.39;64.58;100782.78;1620923;86;25719;-79
2021/04/26 06:14:11;;;;;;;6.30;3.60;;;;;;;3.40;64.56;100778.44;1617288;86;26017;-75
2021/04/26 06:16:37;;;;;;;7.03;3.60;;;;;;;3.40;64.80;100781.84;1616938;86;25803;-79
2021/04/26 06:19:04;;;;;;;7.83;3.97;;;;;;;3.48;64.93;100786.00;1617788;86;35660;-78
2021/04/26 06:21:31;;;;;;;6.35;3.52;;;;;;;3.59;64.74;100783.95;1617816;86;25875;-78
2021/04/26 06:23:59;;;;;;;7.28;3.67;;;;;;;3.68;64.60;100783.75;1617327;86;25346;-79
2021/04/26 06:26:25;;;;;;;7.28;3.20;;;;;;;3.74;64.43;100790.62;1619018;86;25866;-79
2021/04/26 06:28:51;;;;;;;6.45;2.75;;;;;;;3.83;64.39;100789.13;1598532;88;26477;-78
2021/04/26 06:31:17;;;;;;;5.87;2.93;;;;;;;3.90;64.27;100783.02;1619151;86;25853;-77
2021/04/26 06:33:43;;;;;;;5.22;2.67;;;;;;;3.95;64.00;100780.45;1618811;86;25965;-77
2021/04/26 06:36:09;;;;;;;5.53;3.00;;;;;;;3.95;63.72;100783.05;1600688;86;25727;-82
2021/04/26 06:38:36;;;;;;;3.35;2.10;;;;;;;4.02;63.68;100783.91;1618734;87;25769;-79
2021/04/26 06:41:02;;;;;;;4.92;2.65;;;;;;;4.05;63.01;100777.22;1616745;87;25677;-76
2021/04/26 06:43:28;;;;;;;4.10;2.40;;;;;;;4.05;62.55;100792.27;1619806;87;25828;-76
2021/04/26 06:45:54;;;;;;;5.85;2.50;;;;;;;4.11;62.66;100791.80;1620611;87;25846;-81
2021/04/26 06:48:20;;;;;;;3.62;2.35;;;;;;;4.13;62.08;100785.24;1619191;87;25867;-78
2021/04/26 06:50:47;;;;;;;5.40;2.45;;;;;;;4.18;61.96;100789.61;1618118;87;25849;-82
2021/04/26 06:53:16;;;;;;;5.00;2.98;;;;;;;4.25;62.27;100786.91;1602670;88;25361;-81
2021/04/26 06:55:43;;;;;;;4.33;2.60;;;;;;;4.38;62.36;100786.36;1559745;87;26052;-77
2021/04/26 06:58:10;;;;;;;3.87;2.00;;;;;;;4.53;62.02;100786.14;1619371;87;25935;-79
2021/04/26 07:00:36;;;;;;;5.53;2.42;;;;;;;4.60;59.47;100792.04;1621686;86;25367;-79
2021/04/26 07:03:03;;;;;;;3.15;2.25;;;;;;;4.61;60.35;100796.74;1601174;87;27415;-78
2021/04/26 07:05:30;;;;;;;3.52;2.35;;;;;;;4.66;60.45;100792.89;1618890;87;25809;-77
2021/04/26 07:07:56;;;;;;;3.67;2.27;;;;;;;4.71;59.84;100793.00;1615649;87;25927;-82
2021/04/26 07:10:22;;;;;;;4.20;1.90;;;;;;;4.72;58.48;100791.61;1575958;89;25889;-82
2021/04/26 07:12:48;;;;;;;6.67;2.40;;;;;;;4.74;57.38;100790.99;1615864;87;25424;-81
2021/04/26 07:15:15;;;;;;;5.67;2.23;;;;;;;4.80;57.88;100787.96;1619684;87;25869;-76
2021/04/26 07:17:42;;;;;;;6.85;2.17;;;;;;;4.93;58.29;100789.12;1619391;87;25819;-74
2021/04/26 07:20:12;;;;;;;4.80;2.58;;;;;;;4.91;57.87;100787.14;1600783;87;26563;-75
2021/04/26 07:22:38;;;;;;;6.70;2.15;;;;;;;4.79;56.33;100783.70;1620535;87;25362;-76
2021/04/26 07:25:06;;;;;;;3.98;2.25;;;;;;;4.67;56.64;100789.83;1596328;87;25793;-75
2021/04/26 07:27:32;;;;;;;3.98;2.20;;;;;;;4.67;56.85;100789.83;1620216;87;25747;-77
2021/04/26 07:29:58;;;;;;;3.67;1.73;;;;;;;4.67;57.10;100783.36;1620819;87;25824;-76
2021/04/26 07:32:24;;;;;;;5.08;2.10;;;;;;;4.74;56.13;100779.81;1617991;87;26469;-76
2021/04/26 07:34:50;;;;;;;4.12;2.10;;;;;;;4.82;55.55;100778.28;1619569;87;26407;-74
2021/04/26 07:37:17;;;;;;;3.23;2.07;;;;;;;4.78;54.78;100785.13;1620882;87;25876;-75
2021/04/26 07:39:43;;;;;;;3.40;1.70;;;;;;;4.71;54.74;100777.47;1621078;87;25694;-75
2021/04/26 07:42:09;;;;;;;7.47;1.77;;;;;;;4.74;54.46;100782.41;1600355;87;25477;-78
2021/04/26 07:44:36;;;;;;;3.45;1.75;;;;;;;4.76;54.42;100773.58;1603363;87;25627;-75
2021/04/26 07:47:02;;;;;;;2.83;1.70;;;;;;;4.85;53.47;100784.52;1620874;86;25606;-78
2021/04/26 07:49:28;;;;;;;4.07;1.83;;;;;;;4.93;54.66;100780.05;1601852;87;25417;-81
2021/04/26 07:51:54;;;;;;;8.60;2.20;;;;;;;4.98;55.08;100775.34;1620843;87;25401;-77
2021/04/26 07:54:20;;;;;;;3.07;2.00;;;;;;;5.06;54.18;100770.88;1620771;86;25912;-74
2021/04/26 07:56:46;;;;;;;4.05;2.12;;;;;;;5.12;53.55;100776.39;1620407;87;25438;-74
2021/04/26 07:59:12;;;;;;;3.80;2.00;;;;;;;5.18;52.78;100780.27;1620929;87;26302;-76
2021/04/26 08:01:38;;;;;;;1.98;1.60;;;;;;;5.20;52.24;100790.05;1620750;87;25316;-75
2021/04/26 08:04:04;;;;;;;4.93;2.00;;;;;;;5.15;51.83;100779.69;1620967;87;25992;-75
2021/04/26 08:06:31;;;;;;;5.20;1.90;;;;;;;5.07;50.95;100781.12;1620689;87;25847;-75
2021/04/26 08:08:58;;;;;;;2.17;1.50;;;;;;;4.99;50.18;100777.46;1603300;87;25447;-75
2021/04/26 08:11:24;;;;;;;2.37;1.50;;;;;;;4.96;50.76;100777.70;1619494;87;25357;-77
2021/04/26 08:13:50;;;;;;;2.03;1.50;;;;;;;4.90;50.93;100776.41;1622539;86;25714;-76
2021/04/26 08:16:15;;;;;;;2.17;1.77;;;;;;;4.90;51.51;100775.93;1618674;87;25807;-77
2021/04/26 08:18:41;;;;;;;1.37;1.27;;;;;;;4.92;50.81;100771.94;1619849;87;25947;-79
2021/04/26 08:21:07;;;;;;;3.00;1.73;;;;;;;5.02;50.24;100769.45;1620525;86;25385;-79
2021/04/26 08:23:36;;;;;;;5.55;1.62;;;;;;;5.18;50.81;100765.20;1621401;87;25398;-77
2021/04/26 08:26:02;;;;;;;2.12;1.85;;;;;;;5.42;50.12;100786.59;1621496;87;25793;-78
2021/04/26 08:28:34;;;;;;;2.40;1.50;;;;;;;5.55;48.72;100752.27;1620752;87;25892;-78
2021/04/26 08:31:01;;;;;;;1.87;1.42;;;;;;;5.65;49.26;100770.52;1602217;88;25401;-77
2021/04/26 08:33:28;;;;;;;3.75;1.50;;;;;;;5.72;49.01;100769.55;1617278;87;25884;-77
2021/04/26 08:35:55;;;;;;;1.70;1.37;;;;;;;5.78;48.81;100767.30;1598198;87;25792;-76
2021/04/26 08:38:20;;;;;;;2.95;1.60;;;;;;;5.87;48.62;100754.05;1618018;87;25728;-79
2021/04/26 08:40:46;;;;;;;2.30;1.70;;;;;;;6.01;48.63;100762.03;1617549;87;25711;-77
2021/04/26 08:43:13;;;;;;;5.08;2.50;;;;;;;6.06;47.26;100750.81;1617984;87;25894;-77
2021/04/26 08:45:38;;;;;;;2.85;1.90;;;;;;;6.05;47.56;100754.33;1617515;87;25775;-78
2021/04/26 08:48:06;;;;;;;2.20;1.40;;;;;;;6.07;48.47;100755.52;1619462;87;28285;-78
2021/04/26 08:50:32;;;;;;;4.60;1.82;;;;;;;6.03;47.88;100746.33;1619051;87;25393;-78
2021/04/26 08:52:58;;;;;;;2.20;1.70;;;;;;;5.89;47.61;100754.76;1623127;86;25401;-77
2021/04/26 08:55:25;;;;;;;17.55;3.10;;;;;;;5.82;46.69;100751.48;1589414;87;25419;-77
2021/04/26 08:57:52;;;;;;;4.05;1.62;;;;;;;5.73;47.63;100744.80;1603321;88;25430;-79
2021/04/26 09:00:19;;;;;;;4.28;2.00;;;;;;;5.73;47.51;100742.20;1620820;87;25792;-79
2021/04/26 09:03:00;;;;;;;2.40;1.70;;;;;;;5.78;47.24;100749.59;1619948;87;25809;-76
2021/04/26 09:05:37;;;;;;;2.40;1.47;;;;;;;5.91;47.88;100742.46;1619761;87;25981;-74
2021/04/26 09:08:05;;;;;;;2.08;1.62;;;;;;;6.12;45.93;100742.99;1616596;87;25997;-75
2021/04/26 09:10:44;;;;;;;2.08;1.50;;;;;;;6.11;46.48;100733.09;1620568;87;26434;-77
2021/04/26 09:13:45;;;;;;;4.80;1.82;;;;;;;6.22;46.82;100737.39;1619613;87;26631;-76
2021/04/26 09:16:22;;;;;;;2.92;1.65;;;;;;;6.33;46.07;100738.63;1620397;87;25366;-77
2021/04/26 09:19:17;;;;;;;2.75;1.82;;;;;;;6.38;45.86;100739.06;1621097;87;25636;-76
2021/04/26 09:21:47;;;;;;;2.33;1.75;;;;;;;6.45;45.77;100731.56;1668697;83;25398;-75
2021/04/26 09:24:24;;;;;;;5.60;1.70;;;;;;;6.54;45.07;100729.96;1655564;85;26256;-75
2021/04/26 09:27:12;;;;;;;4.65;1.85;;;;;;;6.50;44.51;100726.00;1655964;85;25334;-75
2021/04/26 09:29:40;;;;;;;2.98;1.52;;;;;;;6.44;44.88;100735.95;1684428;83;26332;-76
2021/04/26 09:32:22;;;;;;;3.00;1.60;;;;;;;6.33;45.32;100735.17;1658860;85;25656;-77
2021/04/26 09:34:53;;;;;;;2.70;1.77;;;;;;;6.26;44.64;100736.66;1632906;86;25452;-77
2021/04/26 09:37:27;;;;;;;;;;;;;;;6.12;43.64;100741.22;1658898;85;25752;-76
2021/04/26 09:40:13;;;;;;;3.60;1.90;;;;;;;6.06;44.09;100743.51;1648315;85;25370;-74
2021/04/26 09:42:57;;;;;;;4.47;2.15;;;;;;;6.05;44.14;100737.95;1670780;84;25793;-75
2021/04/26 09:45:37;;;;;;;7.35;3.62;;;;;;;6.07;44.45;100732.98;1667697;84;25840;-74
2021/04/26 09:48:14;;;;;;;5.47;2.40;;;;;;;6.15;43.99;100735.77;1667921;83;25396;-76
2021/04/26 09:51:17;;;;;;;2.30;1.42;;;;;;;6.34;44.22;100731.17;1669973;84;25993;-74
2021/04/26 09:53:45;;;;;;;2.12;1.30;;;;;;;6.53;43.66;100717.95;1654900;85;30780;-75
2021/04/26 09:56:19;;;;;;;1.35;1.25;;;;;;;6.67;41.88;100726.67;1653995;85;26036;-75
2021/04/26 09:58:49;;;;;;;3.95;1.60;;;;;;;6.75;42.34;100726.03;1655339;85;25894;-75
2021/04/26 10:01:15;;;;;;;3.05;1.72;;;;;;;6.69;41.41;100726.56;1654405;85;25370;-75
2021/04/26 10:03:42;;;;;;;2.42;1.12;;;;;;;6.61;42.09;100731.10;1653796;85;25851;-75
2021/04/26 10:06:08;;;;;;;2.50;1.60;;;;;;;6.57;42.45;100728.41;1654934;85;25371;-75
2021/04/26 10:08:35;;;;;;;5.15;1.80;;;;;;;6.60;42.67;100725.09;1629223;85;25354;-75
2021/04/26 10:11:01;;;;;;;2.55;1.70;;;;;;;6.64;41.99;100725.16;1654727;85;25651;-75
2021/04/26 10:13:27;;;;;;;1.93;1.50;;;;;;;6.70;43.08;100726.89;1656000;85;25973;-75
2021/04/26 10:15:56;;;;;;;3.53;1.40;;;;;;;6.72;42.18;100727.11;1654221;85;25379;-76
2021/04/26 10:18:58;;;;;;;4.65;2.25;;;;;;;6.69;41.92;100726.08;1654222;85;25312;-75
2021/04/26 10:21:28;;;;;;;4.80;1.65;;;;;;;6.71;41.96;100724.63;1631077;85;25828;-75
2021/04/26 10:23:55;;;;;;;1.87;1.67;;;;;;;6.69;42.45;100720.88;1647796;85;25753;-76
2021/04/26 10:26:43;;;;;;;2.90;1.80;;;;;;;6.69;42.67;100726.56;1665978;84;25785;-75
2021/04/26 10:29:26;;;;;;;2.65;1.60;;;;;;;6.63;42.36;100730.50;1676829;84;25659;-76
2021/04/26 10:32:02;;;;;;;2.87;1.72;;;;;;;6.48;42.23;100733.91;1664914;84;25758;-75
2021/04/26 10:34:33;;;;;;;5.50;1.57;;;;;;;6.28;43.56;100732.17;1666251;84;25731;-74
2021/04/26 10:37:03;;;;;;;3.40;1.80;;;;;;;6.10;43.27;100730.13;1663690;84;25961;-75
2021/04/26 10:39:34;;;;;;;2.05;1.42;;;;;;;6.07;43.63;100724.38;1665683;84;25854;-73
2021/04/26 10:42:11;;;;;;;3.80;1.50;;;;;;;6.09;43.06;100722.49;1665051;84;25885;-76
2021/04/26 10:44:42;;;;;;;2.00;1.50;;;;;;;6.12;42.85;100714.45;1665009;84;25451;-75
2021/04/26 10:47:35;;;;;;;1.77;1.32;;;;;;;6.21;42.06;100713.19;1665397;84;25352;-75
2021/04/26 10:50:12;;;;;;;2.30;1.65;;;;;;;6.41;42.13;100703.75;1663941;84;25881;-75
2021/04/26 10:52:42;;;;;;;2.22;1.52;;;;;;;6.75;43.96;100701.35;1668518;84;26191;-75
2021/04/26 10:55:23;;;;;;;2.72;1.52;;;;;;;6.94;42.08;100702.70;1665885;84;28789;-79
2021/04/26 10:57:56;;;;;;;3.40;1.67;;;;;;;7.07;42.06;100695.48;1665144;84;25812;-77
2021/04/26 11:00:31;;;;;;;3.02;1.80;;;;;;;7.10;41.83;100693.10;1668503;84;25713;-78
2021/04/26 11:03:15;;;;;;;3.02;1.80;;;;;;;7.22;41.49;100691.20;1663859;84;25849;-78
2021/04/26 11:05:46;;;;;;;4.28;1.82;;;;;;;7.33;41.41;100680.66;1643115;85;25376;-79
2021/04/26 11:08:38;;;;;;;4.92;2.37;;;;;;;7.55;41.16;100685.59;1666614;84;25836;-78
2021/04/26 11:11:13;;;;;;;6.30;2.62;;;;;;;7.63;42.20;100698.40;1647104;84;25421;-78
2021/04/26 11:13:45;;;;;;;3.85;2.10;;;;;;;7.59;41.20;100695.27;1666495;84;25758;-78
2021/04/26 11:16:15;;;;;;;4.17;1.92;;;;;;;7.38;41.05;100694.57;1666087;84;26672;-77
2021/04/26 11:19:10;;;;;;;5.42;2.72;;;;;;;7.32;41.08;100695.45;1646727;85;25414;-78
2021/04/26 11:21:49;;;;;;;3.75;2.15;;;;;;;7.24;41.77;100695.78;1646635;85;26429;-77
2021/04/26 11:24:41;;;;;;;8.43;2.77;;;;;;;7.30;41.54;100696.06;1647229;85;26313;-74
2021/04/26 11:27:15;;;;;;;4.35;2.60;;;;;;;7.31;42.40;100700.31;1621308;86;25816;-75
2021/04/26 11:29:59;;;;;;;4.75;2.50;;;;;;;7.24;43.64;100700.50;1646798;85;25858;-75
2021/04/26 11:32:26;;;;;;;3.27;2.30;;;;;;;7.18;44.99;100717.12;1647361;85;25815;-74
2021/04/26 11:35:01;;;;;;;3.00;2.35;;;;;;;7.08;45.27;100714.02;1665855;84;25765;-77
2021/04/26 11:37:36;;;;;;;4.12;2.33;;;;;;;6.93;45.67;100728.36;1645594;85;26649;-76
2021/04/26 11:40:26;;;;;;;3.92;2.25;;;;;;;6.91;46.47;100715.15;1665171;84;25881;-82
2021/04/26 11:42:56;;;;;;;;;;;;;;;6.66;46.60;100721.15;1647637;84;25896;-78
2021/04/26 11:45:22;;;;;;;3.72;2.45;;;;;;;6.36;47.57;100712.41;1662925;84;25817;-78
2021/04/26 11:47:49;;;;;;;3.93;2.70;;;;;;;6.33;47.58;100707.92;1666066;85;25384;-79